createdAt,value
2022-12-18T00:02:16.331Z,99375.39
2022-12-18T00:04:43.570Z,99377.90
2022-12-18T00:07:10.554Z,99385.09
2022-12-18T00:09:39.351Z,99396.16
2022-12-18T00:14:45.561Z,99395.08
2022-12-18T00:17:12.592Z,99399.91
2022-12-18T00:19:39.477Z,99403.30
2022-12-18T00:22:06.964Z,99406.66
2022-12-18T00:24:34.278Z,99408.80
2022-12-18T00:27:01.408Z,99416.17
2022-12-18T00:29:28.620Z,99419.77
2022-12-18T00:31:55.741Z,99434.86
2022-12-18T00:34:23.936Z,99429.38
2022-12-18T00:36:53.008Z,99429.52
2022-12-18T00:39:19.927Z,99428.13
2022-12-18T00:42:05.319Z,99432.12
2022-12-18T00:44:32.536Z,99437.20
2022-12-18T00:46:59.541Z,99443.86
2022-12-18T00:49:26.326Z,99445.10
2022-12-18T00:51:56.186Z,99451.02
2022-12-18T00:54:23.253Z,99443.33
2022-12-18T00:56:50.790Z,99444.52
2022-12-18T00:59:18.353Z,99443.66
2022-12-18T01:01:46.123Z,99450.89
2022-12-18T01:04:13.782Z,99444.91
2022-12-18T01:06:41.317Z,99440.88
2022-12-18T01:09:10.119Z,99452.77
2022-12-18T01:11:37.576Z,99443.64
2022-12-18T01:14:05.903Z,99442.38
2022-12-18T01:16:34.215Z,99450.00
2022-12-18T01:19:01.338Z,99451.19
2022-12-18T01:21:28.378Z,99461.84
2022-12-18T01:23:56.097Z,99458.59
2022-12-18T01:26:24.769Z,99444.83
2022-12-18T01:28:51.857Z,99458.05
2022-12-18T01:31:27.914Z,99460.30
2022-12-18T01:33:55.503Z,99465.59
2022-12-18T01:36:24.735Z,99467.16
2022-12-18T01:38:51.785Z,99471.73
2022-12-18T01:41:24.559Z,99466.05
2022-12-18T01:43:55.606Z,99465.15
2022-12-18T01:46:26.541Z,99471.40
2022-12-18T01:48:58.506Z,99477.23
2022-12-18T01:51:26.167Z,99488.14
2022-12-18T01:53:53.156Z,99493.87
2022-12-18T01:56:20.460Z,99494.55
2022-12-18T01:59:03.996Z,99503.40
2022-12-18T02:01:31.247Z,99505.17
2022-12-18T02:04:34.341Z,99510.98
2022-12-18T02:07:24.681Z,99515.06
2022-12-18T02:09:51.890Z,99499.84
2022-12-18T02:12:20.770Z,99510.08
2022-12-18T02:14:57.002Z,99518.05
2022-12-18T02:17:44.539Z,99504.44
2022-12-18T02:20:26.048Z,99520.16
2022-12-18T02:23:08.779Z,99527.09
2022-12-18T02:26:10.736Z,99533.88
2022-12-18T02:29:08.701Z,99537.61
2022-12-18T02:31:44.037Z,99534.48
2022-12-18T02:34:11.640Z,99538.05
2022-12-18T02:36:40.705Z,99536.01
2022-12-18T02:39:09.176Z,99545.83
2022-12-18T02:41:37.559Z,99539.48
2022-12-18T02:44:12.577Z,99551.35
2022-12-18T02:46:41.799Z,99560.86
2022-12-18T02:49:38.557Z,99562.77
2022-12-18T02:52:08.037Z,99570.06
2022-12-18T02:54:55.406Z,99579.17
2022-12-18T02:57:43.562Z,99585.64
2022-12-18T03:00:19.392Z,99584.39
2022-12-18T03:02:59.822Z,99593.05
2022-12-18T03:05:42.211Z,99593.01
2022-12-18T03:08:16.551Z,99588.02
2022-12-18T03:10:58.656Z,99607.36
2022-12-18T03:13:48.054Z,99609.68
2022-12-18T03:16:23.201Z,99617.58
2022-12-18T03:19:07.803Z,99628.30
2022-12-18T03:21:39.601Z,99639.98
2022-12-18T03:24:08.348Z,99643.62
2022-12-18T03:26:36.283Z,99643.95
2022-12-18T03:29:07.052Z,99636.83
2022-12-18T03:31:35.950Z,99649.22
2022-12-18T03:34:14.043Z,99644.04
2022-12-18T03:36:43.858Z,99653.42
2022-12-18T03:39:11.334Z,99654.02
2022-12-18T03:41:45.329Z,99645.66
2022-12-18T03:44:57.018Z,99651.63
2022-12-18T03:47:28.262Z,99661.11
2022-12-18T03:50:22.047Z,99657.88
2022-12-18T03:52:52.673Z,99664.91
2022-12-18T03:55:20.466Z,99661.69
2022-12-18T03:57:48.711Z,99681.69
2022-12-18T04:00:17.092Z,99676.46
2022-12-18T04:03:02.053Z,99665.69
2022-12-18T04:05:33.973Z,99686.58
2022-12-18T04:08:01.524Z,99683.64
2022-12-18T04:10:29.165Z,99697.39
2022-12-18T04:13:25.158Z,99700.94
2022-12-18T04:15:53.048Z,99710.95
2022-12-18T04:18:21.555Z,99718.22
2022-12-18T04:20:49.354Z,99723.43
2022-12-18T04:23:17.615Z,99708.34
2022-12-18T04:25:44.724Z,99710.55
2022-12-18T04:28:15.331Z,99723.42
2022-12-18T04:30:43.115Z,99729.70
2022-12-18T04:33:11.883Z,99733.09
2022-12-18T04:35:40.244Z,99743.91
2022-12-18T04:38:08.832Z,99741.29
2022-12-18T04:40:36.498Z,99728.65
2022-12-18T04:43:04.116Z,99738.64
2022-12-18T04:45:32.026Z,99736.61
2022-12-18T04:47:59.789Z,99730.21
2022-12-18T04:50:27.009Z,99735.80
2022-12-18T04:52:54.189Z,99737.11
2022-12-18T04:55:21.203Z,99750.08
2022-12-18T04:57:48.186Z,99760.22
2022-12-18T05:00:15.723Z,99755.02
2022-12-18T05:02:42.959Z,99738.84
2022-12-18T05:05:10.344Z,99759.62
2022-12-18T05:07:37.156Z,99767.21
2022-12-18T05:10:07.747Z,99768.52
2022-12-18T05:12:54.687Z,99760.77
2022-12-18T05:15:21.676Z,99784.27
2022-12-18T05:17:48.483Z,99797.29
2022-12-18T05:20:15.575Z,99798.98
2022-12-18T05:22:42.504Z,99812.48
2022-12-18T05:25:09.500Z,99812.97
2022-12-18T05:27:36.909Z,99807.77
2022-12-18T05:30:04.978Z,99820.77
2022-12-18T05:32:32.131Z,99832.61
2022-12-18T05:34:58.931Z,99829.23
2022-12-18T05:37:26.941Z,99830.08
2022-12-18T05:39:53.987Z,99830.77
2022-12-18T05:42:20.806Z,99835.64
2022-12-18T05:44:48.185Z,99849.17
2022-12-18T05:47:15.109Z,99859.30
2022-12-18T05:49:42.114Z,99863.19
2022-12-18T05:52:09.426Z,99865.40
2022-12-18T05:54:36.427Z,99869.11
2022-12-18T05:57:03.433Z,99878.76
2022-12-18T05:59:30.872Z,99886.36
2022-12-18T06:01:57.848Z,99881.78
2022-12-18T06:04:24.959Z,99881.13
2022-12-18T06:06:52.562Z,99882.31
2022-12-18T06:09:19.674Z,99897.68
2022-12-18T06:11:46.620Z,99901.55
2022-12-18T06:21:50.506Z,99929.46
2022-12-18T06:24:17.569Z,99933.49
2022-12-18T06:26:44.433Z,99928.25
2022-12-18T06:29:11.336Z,99940.78
2022-12-18T06:31:38.720Z,99935.04
2022-12-18T06:34:05.958Z,99941.97
2022-12-18T06:36:32.865Z,99947.55
2022-12-18T06:38:59.904Z,99954.80
2022-12-18T06:41:26.971Z,99967.16
2022-12-18T06:43:59.405Z,99964.98
2022-12-18T06:46:26.847Z,99958.21
2022-12-18T06:48:53.935Z,99984.24
2022-12-18T06:51:22.084Z,99979.00
2022-12-18T06:53:48.977Z,99971.54
2022-12-18T06:56:15.995Z,99980.88
2022-12-18T06:58:42.969Z,99990.50
2022-12-18T07:01:11.459Z,99995.41
2022-12-18T07:03:42.621Z,99985.91
2022-12-18T07:06:18.177Z,100002.00
2022-12-18T07:08:46.079Z,100014.54
2022-12-18T07:11:13.351Z,100009.29
2022-12-18T07:13:40.467Z,100018.09
2022-12-18T07:16:20.916Z,100028.89
2022-12-18T07:18:51.157Z,100030.92
2022-12-18T07:21:19.741Z,100045.33
2022-12-18T07:23:49.216Z,100046.52
2022-12-18T07:26:18.790Z,100045.67
2022-12-18T07:28:45.659Z,100061.41
2022-12-18T07:31:15.771Z,100059.37
2022-12-18T07:33:43.142Z,100053.95
2022-12-18T10:26:44.137Z,100258.45
2022-12-18T10:29:12.583Z,100256.91
2022-12-18T10:31:39.678Z,100255.39
2022-12-18T10:34:11.199Z,100252.86
2022-12-18T10:36:40.991Z,100266.56
2022-12-18T10:39:19.920Z,100255.44
2022-12-18T10:41:47.008Z,100248.91
2022-12-18T10:44:23.937Z,100268.44
2022-12-18T10:46:56.395Z,100272.56
2022-12-18T10:49:28.466Z,100284.60
2022-12-18T10:52:06.070Z,100270.65
2022-12-18T10:54:35.089Z,100272.25
2022-12-18T10:57:29.780Z,100283.73
2022-12-18T10:59:58.339Z,100278.70
2022-12-18T11:02:43.955Z,100295.10
2022-12-18T11:05:37.738Z,100310.45
2022-12-18T11:08:04.691Z,100282.89
2022-12-18T11:10:34.085Z,100311.63
2022-12-18T11:13:37.081Z,100303.31
2022-12-18T11:16:04.211Z,100306.12
2022-12-18T11:18:35.271Z,100303.58
2022-12-18T11:21:10.386Z,100312.11
2022-12-18T11:23:37.901Z,100323.50
2022-12-18T11:26:05.171Z,100319.27
2022-12-18T11:28:44.437Z,100327.27
2022-12-18T11:31:15.375Z,100318.14
2022-12-18T11:34:04.852Z,100329.32
2022-12-18T11:36:37.188Z,100315.39
2022-12-18T11:39:18.768Z,100329.11
2022-12-18T11:42:20.122Z,100332.70
2022-12-18T11:44:56.521Z,100339.20
2022-12-18T11:47:39.688Z,100334.16
2022-12-18T11:50:13.556Z,100341.42
2022-12-18T11:52:40.867Z,100343.36
2022-12-18T11:55:12.986Z,100345.95
2022-12-18T11:57:51.924Z,100349.98
2022-12-18T12:00:19.728Z,100357.62
2022-12-18T12:03:05.580Z,100356.33
2022-12-18T12:05:42.593Z,100363.79
2022-12-18T12:08:24.790Z,100367.59
2022-12-18T12:10:58.100Z,100365.82
2022-12-18T12:14:03.334Z,100359.90
2022-12-18T12:16:36.781Z,100382.23
2022-12-18T12:19:03.482Z,100381.49
2022-12-18T12:21:41.069Z,100380.83
2022-12-18T12:24:33.381Z,100383.71
2022-12-18T12:27:06.254Z,100401.23
2022-12-18T12:30:00.264Z,100400.36
2022-12-18T12:32:46.459Z,100398.34
2022-12-18T12:35:30.515Z,100413.77
2022-12-18T12:37:57.553Z,100420.72
2022-12-18T12:40:51.305Z,100422.48
2022-12-18T12:43:38.547Z,100436.35
2022-12-18T12:46:11.449Z,100449.41
2022-12-18T12:48:49.127Z,100451.04
2022-12-18T12:51:29.998Z,100457.00
2022-12-18T12:53:57.849Z,100450.10
2022-12-18T12:56:29.621Z,100457.18
2022-12-18T12:59:17.743Z,100470.25
2022-12-18T13:01:53.620Z,100477.23
2022-12-18T13:04:44.219Z,100483.62
2022-12-18T13:07:28.359Z,100483.86
2022-12-18T13:10:23.021Z,100481.75
2022-12-18T13:13:03.555Z,100470.14
2022-12-18T13:15:39.777Z,100488.50
2022-12-18T13:18:10.241Z,100490.22
2022-12-18T13:20:42.270Z,100498.88
2022-12-18T13:23:26.315Z,100497.46
2022-12-18T13:26:16.615Z,100502.81
2022-12-18T13:28:46.827Z,100518.37
2022-12-18T13:31:15.511Z,100529.67
2022-12-18T13:36:33.111Z,100529.80
2022-12-18T13:39:12.495Z,100522.86
2022-12-18T13:41:40.058Z,100537.30
2022-12-18T13:44:13.354Z,100538.86
2022-12-18T13:46:45.595Z,100538.02
2022-12-18T13:49:14.059Z,100545.17
2022-12-18T13:51:49.131Z,100542.98
2022-12-18T16:46:16.902Z,100821.37
2022-12-18T16:48:43.985Z,100813.00
2022-12-18T16:51:11.770Z,100807.68
2022-12-18T16:53:39.635Z,100822.79
2022-12-18T16:56:07.154Z,100817.66
2022-12-18T16:58:34.813Z,100814.70
2022-12-18T17:01:08.415Z,100821.25
2022-12-18T17:03:35.406Z,100818.30
2022-12-18T17:06:04.250Z,100815.81
2022-12-18T17:08:32.425Z,100825.55
2022-12-18T17:11:06.751Z,100832.17
2022-12-18T17:13:33.941Z,100838.06
2022-12-18T17:16:07.808Z,100839.24
2022-12-18T17:18:35.151Z,100848.89
2022-12-18T17:21:02.916Z,100863.73
2022-12-18T17:23:32.933Z,100849.70
2022-12-18T17:26:00.053Z,100856.31
2022-12-18T17:28:27.488Z,100869.54
2022-12-18T17:30:55.242Z,100874.21
2022-12-18T17:33:23.301Z,100875.73
2022-12-18T17:35:50.418Z,100870.70
2022-12-18T17:38:17.677Z,100869.95
2022-12-18T17:40:46.487Z,100869.50
2022-12-18T17:43:14.035Z,100873.33
2022-12-18T17:45:41.154Z,100872.48
2022-12-18T17:48:08.319Z,100865.26
2022-12-18T17:50:36.466Z,100872.56
2022-12-18T17:53:03.639Z,100865.88
2022-12-18T17:55:30.594Z,100883.14
2022-12-18T17:57:59.778Z,100883.15
2022-12-18T18:00:27.550Z,100882.30
2022-12-18T18:02:55.486Z,100878.77
2022-12-18T18:05:22.561Z,100872.64
2022-12-18T18:07:51.925Z,100870.48
2022-12-18T18:10:20.450Z,100863.69
2022-12-18T18:13:06.841Z,100868.30
2022-12-18T18:15:34.181Z,100871.43
2022-12-18T18:18:02.073Z,100862.95
2022-12-18T18:20:30.103Z,100875.95
2022-12-18T18:22:57.950Z,100883.49
2022-12-18T18:25:25.774Z,100893.28
2022-12-18T18:27:53.456Z,100904.21
2022-12-18T18:30:20.677Z,100903.27
2022-12-18T18:32:47.825Z,100909.98
2022-12-18T18:35:37.555Z,100914.11
2022-12-18T18:38:03.969Z,100911.21
2022-12-18T18:40:31.084Z,100923.94
2022-12-18T18:42:57.981Z,100926.67
2022-12-18T18:45:25.015Z,100935.85
2022-12-18T18:47:52.128Z,100936.74
2022-12-18T18:50:19.612Z,100935.61
2022-12-18T18:52:47.240Z,100944.66
2022-12-18T18:55:22.323Z,100954.42
2022-12-18T18:57:53.210Z,100957.16
2022-12-18T19:00:20.464Z,100957.16
2022-12-18T19:02:53.045Z,100945.98
2022-12-18T19:05:22.490Z,100944.09
2022-12-18T19:07:50.412Z,100950.09
2022-12-18T19:10:18.482Z,100949.80
2022-12-18T19:13:05.087Z,100949.55
2022-12-18T19:15:33.772Z,100951.15
2022-12-18T19:18:01.330Z,100951.90
2022-12-18T19:20:28.790Z,100953.05
2022-12-18T19:22:56.168Z,100945.75
2022-12-18T19:25:29.699Z,100953.99
2022-12-18T19:28:05.698Z,100963.08
2022-12-18T19:30:38.578Z,100967.77
2022-12-18T19:33:20.015Z,100968.48
2022-12-18T19:35:53.667Z,100973.66
2022-12-18T19:38:21.482Z,100971.48
2022-12-18T19:40:48.578Z,100981.91
2022-12-18T19:43:15.801Z,100991.84
2022-12-18T19:45:43.613Z,100998.28
2022-12-18T19:48:10.746Z,101004.71
2022-12-18T19:50:41.249Z,101009.75
2022-12-18T19:53:08.138Z,101012.69
2022-12-18T19:55:41.402Z,101018.50
2022-12-18T19:58:10.604Z,101022.08
2022-12-18T20:00:37.713Z,101022.90
2022-12-18T20:03:15.616Z,101023.00
2022-12-18T20:05:49.666Z,101024.30
2022-12-18T20:08:17.124Z,101027.57
2022-12-18T20:10:50.111Z,101031.48
2022-12-18T20:13:18.361Z,101035.46
2022-12-18T20:15:45.651Z,101041.71
2022-12-18T20:18:12.823Z,101039.85
2022-12-18T20:20:40.062Z,101047.74
2022-12-18T20:23:07.349Z,101047.35
2022-12-18T20:25:34.443Z,101050.34
2022-12-18T20:28:01.608Z,101050.72
2022-12-18T20:30:29.253Z,101058.23
2022-12-18T20:32:56.361Z,101064.00
2022-12-18T20:35:27.562Z,101071.05
2022-12-18T20:37:55.404Z,101072.29
2022-12-18T20:40:23.502Z,101081.59
2022-12-18T20:42:50.534Z,101080.73
2022-12-18T20:45:20.028Z,101082.35
2022-12-18T20:47:47.484Z,101080.25
2022-12-18T20:50:14.941Z,101079.77
2022-12-18T20:52:42.099Z,101084.65
2022-12-18T20:55:09.134Z,101089.19
2022-12-18T20:57:38.488Z,101092.34
2022-12-18T21:00:06.752Z,101094.89
2022-12-18T21:02:34.049Z,101092.13
2022-12-18T21:05:01.247Z,101095.92
2022-12-18T21:07:28.084Z,101102.07
2022-12-18T21:09:55.212Z,101110.69
2022-12-18T21:12:34.899Z,101109.80
2022-12-18T21:15:08.032Z,101110.83
2022-12-18T21:17:38.691Z,101115.76
2022-12-18T21:20:15.798Z,101118.56
2022-12-18T21:22:44.918Z,101125.88
2022-12-18T21:25:13.333Z,101131.83
2022-12-18T21:27:40.577Z,101135.22
2022-12-18T21:30:08.551Z,101137.84
2022-12-18T21:32:36.541Z,101130.02
2022-12-18T21:35:04.901Z,101132.73
2022-12-18T21:37:31.756Z,101131.77
2022-12-18T21:39:58.781Z,101124.36
2022-12-18T21:42:44.574Z,101126.58
2022-12-18T21:45:11.585Z,101128.45
2022-12-18T21:47:38.656Z,101135.71
2022-12-18T21:50:06.323Z,101135.73
2022-12-18T21:52:33.821Z,101134.64
2022-12-18T21:55:06.657Z,101129.30
2022-12-18T21:57:37.281Z,101127.11
2022-12-18T22:00:06.087Z,101123.49
2022-12-18T22:02:39.349Z,101124.55
2022-12-18T22:05:07.652Z,101126.42
2022-12-18T22:07:34.637Z,101136.13
2022-12-18T22:10:02.046Z,101140.99
2022-12-18T22:12:43.164Z,101149.13
2022-12-18T22:15:13.135Z,101154.27
2022-12-18T22:17:50.243Z,101154.72
2022-12-18T22:20:18.403Z,101156.82
2022-12-18T22:22:48.219Z,101161.38
2022-12-18T22:25:15.363Z,101160.03
2022-12-18T22:27:42.307Z,101165.49
2022-12-18T22:30:10.994Z,101159.61
2022-12-18T22:32:37.833Z,101155.81
2022-12-18T22:35:09.528Z,101155.60
2022-12-18T22:37:41.030Z,101151.19
2022-12-18T22:40:11.201Z,101145.61
2022-12-18T22:42:40.588Z,101144.84
2022-12-18T22:45:08.636Z,101148.44
2022-12-18T22:47:35.633Z,101147.49
2022-12-18T22:50:02.525Z,101149.30
2022-12-18T22:52:30.518Z,101144.70
2022-12-18T22:54:57.538Z,101145.80
2022-12-18T22:57:24.789Z,101145.96
2022-12-18T22:59:51.715Z,101150.01
2022-12-18T23:02:19.051Z,101145.66
2022-12-18T23:04:46.953Z,101148.36
2022-12-18T23:07:14.815Z,101151.36
2022-12-18T23:09:41.761Z,101149.41
2022-12-18T23:12:14.256Z,101148.54
2022-12-18T23:14:41.218Z,101146.71
2022-12-18T23:17:08.102Z,101144.56
2022-12-18T23:19:37.892Z,101147.45
2022-12-18T23:22:10.032Z,101148.96
2022-12-18T23:24:38.892Z,101148.76
2022-12-18T23:27:08.608Z,101151.28
2022-12-18T23:29:40.164Z,101152.36
2022-12-18T23:32:07.156Z,101151.56
2022-12-18T23:34:34.570Z,101151.55
2022-12-18T23:37:03.140Z,101153.10
2022-12-18T23:39:30.546Z,101158.90
2022-12-18T23:41:58.381Z,101169.44
2022-12-18T23:44:25.618Z,101171.47
2022-12-18T23:46:52.650Z,101171.50
2022-12-18T23:49:19.813Z,101167.05
2022-12-18T23:51:47.017Z,101167.05
2022-12-18T23:54:13.897Z,101165.63
2022-12-18T23:56:41.001Z,101171.42
2022-12-18T23:59:08.337Z,101172.14
